sensor_id;sensor_type;location;lat;lon;timestamp;P1;durP1;ratioP1;P2;durP2;ratioP2
69985;SDS011;57328;52.054;5.294;2023-11-22T00:01:04;20.23;;;6.78;;
69985;SDS011;57328;52.054;5.294;2023-11-22T00:03:35;19.65;;;7.35;;
69985;SDS011;57328;52.054;5.294;2023-11-22T00:06:02;19.00;;;7.25;;
69985;SDS011;57328;52.054;5.294;2023-11-22T00:08:30;19.33;;;7.95;;
69985;SDS011;57328;52.054;5.294;2023-11-22T00:10:57;17.98;;;7.10;;
69985;SDS011;57328;52.054;5.294;2023-11-22T00:13:25;16.25;;;6.78;;
69985;SDS011;57328;52.054;5.294;2023-11-22T00:15:52;19.95;;;7.00;;
69985;SDS011;57328;52.054;5.294;2023-11-22T00:18:19;16.45;;;6.47;;
69985;SDS011;57328;52.054;5.294;2023-11-22T00:20:47;18.77;;;7.45;;
69985;SDS011;57328;52.054;5.294;2023-11-22T00:23:15;18.15;;;7.32;;
69985;SDS011;57328;52.054;5.294;2023-11-22T00:25:42;18.63;;;7.28;;
69985;SDS011;57328;52.054;5.294;2023-11-22T00:28:09;14.75;;;6.03;;
69985;SDS011;57328;52.054;5.294;2023-11-22T00:30:38;20.38;;;7.05;;
69985;SDS011;57328;52.054;5.294;2023-11-22T00:33:05;16.70;;;6.93;;
69985;SDS011;57328;52.054;5.294;2023-11-22T00:35:32;18.15;;;7.10;;
69985;SDS011;57328;52.054;5.294;2023-11-22T00:38:00;17.63;;;6.63;;
69985;SDS011;57328;52.054;5.294;2023-11-22T00:40:27;17.27;;;7.25;;
69985;SDS011;57328;52.054;5.294;2023-11-22T00:42:55;17.42;;;7.00;;
69985;SDS011;57328;52.054;5.294;2023-11-22T00:45:22;21.45;;;7.43;;
69985;SDS011;57328;52.054;5.294;2023-11-22T00:47:49;17.60;;;6.93;;
69985;SDS011;57328;52.054;5.294;2023-11-22T00:50:16;15.32;;;6.22;;
69985;SDS011;57328;52.054;5.294;2023-11-22T00:52:46;19.67;;;7.30;;
69985;SDS011;57328;52.054;5.294;2023-11-22T00:55:14;20.40;;;7.50;;
69985;SDS011;57328;52.054;5.294;2023-11-22T00:57:41;19.90;;;7.50;;
69985;SDS011;57328;52.054;5.294;2023-11-22T01:00:08;14.52;;;5.90;;
69985;SDS011;57328;52.054;5.294;2023-11-22T01:02:36;18.58;;;6.45;;
69985;SDS011;57328;52.054;5.294;2023-11-22T01:05:07;21.10;;;7.22;;
69985;SDS011;57328;52.054;5.294;2023-11-22T01:07:39;18.40;;;7.63;;
69985;SDS011;57328;52.054;5.294;2023-11-22T01:10:06;18.48;;;6.78;;
69985;SDS011;57328;52.054;5.294;2023-11-22T01:12:33;17.52;;;6.60;;
69985;SDS011;57328;52.054;5.294;2023-11-22T01:15:01;21.60;;;7.32;;
69985;SDS011;57328;52.054;5.294;2023-11-22T01:17:28;19.00;;;7.25;;
69985;SDS011;57328;52.054;5.294;2023-11-22T01:19:55;17.98;;;7.57;;
69985;SDS011;57328;52.054;5.294;2023-11-22T01:22:24;20.65;;;7.07;;
69985;SDS011;57328;52.054;5.294;2023-11-22T01:24:51;19.90;;;6.30;;
69985;SDS011;57328;52.054;5.294;2023-11-22T01:27:19;18.73;;;7.18;;
69985;SDS011;57328;52.054;5.294;2023-11-22T01:29:46;19.48;;;7.50;;
69985;SDS011;57328;52.054;5.294;2023-11-22T01:32:13;15.82;;;5.90;;
69985;SDS011;57328;52.054;5.294;2023-11-22T01:34:43;19.55;;;6.80;;
69985;SDS011;57328;52.054;5.294;2023-11-22T01:37:10;21.77;;;7.03;;
69985;SDS011;57328;52.054;5.294;2023-11-22T01:39:41;18.05;;;7.25;;
69985;SDS011;57328;52.054;5.294;2023-11-22T01:42:09;19.98;;;7.40;;
69985;SDS011;57328;52.054;5.294;2023-11-22T01:44:36;20.58;;;7.18;;
69985;SDS011;57328;52.054;5.294;2023-11-22T01:47:04;17.98;;;6.97;;
69985;SDS011;57328;52.054;5.294;2023-11-22T01:49:32;17.48;;;6.55;;
69985;SDS011;57328;52.054;5.294;2023-11-22T01:51:59;17.65;;;6.78;;
69985;SDS011;57328;52.054;5.294;2023-11-22T01:54:27;15.70;;;6.05;;
69985;SDS011;57328;52.054;5.294;2023-11-22T01:56:55;20.25;;;7.63;;
69985;SDS011;57328;52.054;5.294;2023-11-22T01:59:22;16.40;;;6.18;;
69985;SDS011;57328;52.054;5.294;2023-11-22T02:01:51;18.75;;;6.18;;
69985;SDS011;57328;52.054;5.294;2023-11-22T02:04:19;17.00;;;7.10;;
69985;SDS011;57328;52.054;5.294;2023-11-22T02:06:46;18.95;;;7.22;;
69985;SDS011;57328;52.054;5.294;2023-11-22T02:09:14;19.30;;;7.10;;
69985;SDS011;57328;52.054;5.294;2023-11-22T02:11:42;17.55;;;6.90;;
69985;SDS011;57328;52.054;5.294;2023-11-22T02:14:11;18.77;;;6.82;;
69985;SDS011;57328;52.054;5.294;2023-11-22T02:16:39;20.48;;;7.57;;
69985;SDS011;57328;52.054;5.294;2023-11-22T02:19:07;21.48;;;7.28;;
69985;SDS011;57328;52.054;5.294;2023-11-22T02:21:34;24.35;;;7.75;;
69985;SDS011;57328;52.054;5.294;2023-11-22T02:24:01;20.48;;;6.95;;
69985;SDS011;57328;52.054;5.294;2023-11-22T02:26:29;18.55;;;7.68;;
69985;SDS011;57328;52.054;5.294;2023-11-22T02:28:57;17.70;;;7.13;;
69985;SDS011;57328;52.054;5.294;2023-11-22T02:31:25;18.33;;;6.75;;
69985;SDS011;57328;52.054;5.294;2023-11-22T02:36:22;17.52;;;7.00;;
69985;SDS011;57328;52.054;5.294;2023-11-22T02:38:50;18.52;;;7.65;;
69985;SDS011;57328;52.054;5.294;2023-11-22T02:41:18;21.92;;;7.38;;
69985;SDS011;57328;52.054;5.294;2023-11-22T02:43:45;15.95;;;6.82;;
69985;SDS011;57328;52.054;5.294;2023-11-22T02:46:12;16.58;;;7.32;;
69985;SDS011;57328;52.054;5.294;2023-11-22T02:48:40;18.63;;;7.15;;
69985;SDS011;57328;52.054;5.294;2023-11-22T02:51:07;18.55;;;6.72;;
69985;SDS011;57328;52.054;5.294;2023-11-22T02:53:34;19.95;;;6.60;;
69985;SDS011;57328;52.054;5.294;2023-11-22T02:56:02;18.52;;;6.90;;
69985;SDS011;57328;52.054;5.294;2023-11-22T02:58:29;17.58;;;7.40;;
69985;SDS011;57328;52.054;5.294;2023-11-22T03:00:57;18.80;;;6.65;;
69985;SDS011;57328;52.054;5.294;2023-11-22T03:03:24;16.67;;;6.38;;
69985;SDS011;57328;52.054;5.294;2023-11-22T03:05:52;16.63;;;6.55;;
69985;SDS011;57328;52.054;5.294;2023-11-22T03:08:19;19.13;;;6.53;;
69985;SDS011;57328;52.054;5.294;2023-11-22T03:10:46;17.95;;;7.38;;
69985;SDS011;57328;52.054;5.294;2023-11-22T03:13:14;17.08;;;7.18;;
69985;SDS011;57328;52.054;5.294;2023-11-22T03:15:41;20.05;;;6.95;;
69985;SDS011;57328;52.054;5.294;2023-11-22T03:18:09;17.20;;;7.20;;
69985;SDS011;57328;52.054;5.294;2023-11-22T03:20:37;17.45;;;6.50;;
69985;SDS011;57328;52.054;5.294;2023-11-22T03:23:05;17.55;;;6.30;;
69985;SDS011;57328;52.054;5.294;2023-11-22T03:25:32;18.15;;;6.40;;
69985;SDS011;57328;52.054;5.294;2023-11-22T03:27:59;15.75;;;6.20;;
69985;SDS011;57328;52.054;5.294;2023-11-22T03:30:27;17.75;;;6.38;;
69985;SDS011;57328;52.054;5.294;2023-11-22T03:32:54;17.83;;;7.05;;
69985;SDS011;57328;52.054;5.294;2023-11-22T03:35:21;19.83;;;6.90;;
69985;SDS011;57328;52.054;5.294;2023-11-22T03:37:49;21.27;;;7.05;;
69985;SDS011;57328;52.054;5.294;2023-11-22T03:40:16;16.73;;;6.50;;
69985;SDS011;57328;52.054;5.294;2023-11-22T03:42:43;17.67;;;6.22;;
69985;SDS011;57328;52.054;5.294;2023-11-22T03:45:10;16.95;;;6.85;;
69985;SDS011;57328;52.054;5.294;2023-11-22T03:47:39;16.40;;;5.93;;
69985;SDS011;57328;52.054;5.294;2023-11-22T03:50:07;15.75;;;6.55;;
69985;SDS011;57328;52.054;5.294;2023-11-22T03:52:34;15.43;;;6.28;;
69985;SDS011;57328;52.054;5.294;2023-11-22T03:55:02;16.20;;;6.65;;
69985;SDS011;57328;52.054;5.294;2023-11-22T03:57:30;16.25;;;6.00;;
69985;SDS011;57328;52.054;5.294;2023-11-22T03:59:57;15.98;;;6.22;;
69985;SDS011;57328;52.054;5.294;2023-11-22T04:02:24;17.17;;;6.03;;
69985;SDS011;57328;52.054;5.294;2023-11-22T04:04:52;18.77;;;7.13;;
69985;SDS011;57328;52.054;5.294;2023-11-22T04:07:20;18.77;;;6.55;;
69985;SDS011;57328;52.054;5.294;2023-11-22T04:09:47;15.13;;;6.35;;
69985;SDS011;57328;52.054;5.294;2023-11-22T04:12:14;18.20;;;6.72;;
69985;SDS011;57328;52.054;5.294;2023-11-22T04:14:41;16.80;;;6.40;;
69985;SDS011;57328;52.054;5.294;2023-11-22T04:17:09;19.15;;;7.13;;
69985;SDS011;57328;52.054;5.294;2023-11-22T04:19:37;19.25;;;7.22;;
69985;SDS011;57328;52.054;5.294;2023-11-22T04:22:04;16.38;;;6.60;;
69985;SDS011;57328;52.054;5.294;2023-11-22T04:24:32;18.05;;;6.85;;
69985;SDS011;57328;52.054;5.294;2023-11-22T04:26:59;17.17;;;6.95;;
69985;SDS011;57328;52.054;5.294;2023-11-22T04:29:26;16.50;;;6.47;;
69985;SDS011;57328;52.054;5.294;2023-11-22T04:31:53;17.33;;;6.70;;
69985;SDS011;57328;52.054;5.294;2023-11-22T04:34:21;17.50;;;7.28;;
69985;SDS011;57328;52.054;5.294;2023-11-22T04:36:48;16.58;;;6.70;;
69985;SDS011;57328;52.054;5.294;2023-11-22T04:39:15;15.77;;;6.63;;
69985;SDS011;57328;52.054;5.294;2023-11-22T04:41:43;16.90;;;6.07;;
69985;SDS011;57328;52.054;5.294;2023-11-22T04:44:11;15.27;;;6.05;;
69985;SDS011;57328;52.054;5.294;2023-11-22T04:46:38;16.00;;;6.30;;
69985;SDS011;57328;52.054;5.294;2023-11-22T04:49:05;18.23;;;6.20;;
69985;SDS011;57328;52.054;5.294;2023-11-22T04:51:33;17.67;;;6.07;;
69985;SDS011;57328;52.054;5.294;2023-11-22T04:54:01;13.85;;;6.03;;
69985;SDS011;57328;52.054;5.294;2023-11-22T04:56:29;16.00;;;5.93;;
69985;SDS011;57328;52.054;5.294;2023-11-22T04:58:56;18.08;;;6.57;;
69985;SDS011;57328;52.054;5.294;2023-11-22T05:01:23;18.05;;;6.18;;
69985;SDS011;57328;52.054;5.294;2023-11-22T05:03:52;18.58;;;7.10;;
69985;SDS011;57328;52.054;5.294;2023-11-22T05:06:19;19.02;;;6.00;;
69985;SDS011;57328;52.054;5.294;2023-11-22T05:08:47;14.48;;;5.72;;
69985;SDS011;57328;52.054;5.294;2023-11-22T05:11:14;15.48;;;5.53;;
69985;SDS011;57328;52.054;5.294;2023-11-22T05:13:42;16.70;;;6.68;;
69985;SDS011;57328;52.054;5.294;2023-11-22T05:16:09;19.52;;;6.30;;
69985;SDS011;57328;52.054;5.294;2023-11-22T05:18:37;16.67;;;6.30;;
69985;SDS011;57328;52.054;5.294;2023-11-22T05:21:04;17.65;;;6.80;;
69985;SDS011;57328;52.054;5.294;2023-11-22T05:23:31;17.48;;;6.80;;
69985;SDS011;57328;52.054;5.294;2023-11-22T05:25:59;15.43;;;6.18;;
69985;SDS011;57328;52.054;5.294;2023-11-22T05:28:27;16.83;;;6.45;;
69985;SDS011;57328;52.054;5.294;2023-11-22T05:30:54;18.67;;;6.40;;
69985;SDS011;57328;52.054;5.294;2023-11-22T05:33:21;15.10;;;6.15;;
69985;SDS011;57328;52.054;5.294;2023-11-22T05:35:49;19.75;;;7.00;;
69985;SDS011;57328;52.054;5.294;2023-11-22T05:38:17;17.42;;;6.38;;
69985;SDS011;57328;52.054;5.294;2023-11-22T05:40:44;15.07;;;6.10;;
69985;SDS011;57328;52.054;5.294;2023-11-22T05:43:11;17.17;;;7.00;;
69985;SDS011;57328;52.054;5.294;2023-11-22T05:45:39;15.68;;;6.70;;
69985;SDS011;57328;52.054;5.294;2023-11-22T05:48:06;20.17;;;7.18;;
69985;SDS011;57328;52.054;5.294;2023-11-22T05:50:33;17.77;;;6.72;;
69985;SDS011;57328;52.054;5.294;2023-11-22T05:53:01;20.75;;;7.03;;
69985;SDS011;57328;52.054;5.294;2023-11-22T05:55:28;22.27;;;7.40;;
69985;SDS011;57328;52.054;5.294;2023-11-22T05:57:55;18.92;;;7.00;;
69985;SDS011;57328;52.054;5.294;2023-11-22T06:00:22;20.98;;;8.05;;
69985;SDS011;57328;52.054;5.294;2023-11-22T06:02:50;18.23;;;7.22;;
69985;SDS011;57328;52.054;5.294;2023-11-22T06:05:18;22.35;;;7.80;;
69985;SDS011;57328;52.054;5.294;2023-11-22T06:07:46;20.77;;;7.18;;
69985;SDS011;57328;52.054;5.294;2023-11-22T06:10:13;21.42;;;8.13;;
69985;SDS011;57328;52.054;5.294;2023-11-22T06:12:42;20.50;;;8.15;;
69985;SDS011;57328;52.054;5.294;2023-11-22T06:15:10;21.08;;;8.50;;
69985;SDS011;57328;52.054;5.294;2023-11-22T06:17:38;27.08;;;8.43;;
69985;SDS011;57328;52.054;5.294;2023-11-22T06:20:06;26.63;;;8.32;;
69985;SDS011;57328;52.054;5.294;2023-11-22T06:22:33;22.52;;;8.88;;
69985;SDS011;57328;52.054;5.294;2023-11-22T06:25:00;22.17;;;7.95;;
69985;SDS011;57328;52.054;5.294;2023-11-22T06:27:27;19.48;;;6.80;;
69985;SDS011;57328;52.054;5.294;2023-11-22T06:29:55;20.50;;;7.63;;
69985;SDS011;57328;52.054;5.294;2023-11-22T06:32:22;19.30;;;7.32;;
69985;SDS011;57328;52.054;5.294;2023-11-22T06:34:49;22.55;;;8.90;;
69985;SDS011;57328;52.054;5.294;2023-11-22T06:37:17;21.70;;;8.18;;
69985;SDS011;57328;52.054;5.294;2023-11-22T06:39:44;21.55;;;8.32;;
69985;SDS011;57328;52.054;5.294;2023-11-22T06:42:13;22.45;;;8.25;;
69985;SDS011;57328;52.054;5.294;2023-11-22T06:44:40;20.13;;;7.97;;
69985;SDS011;57328;52.054;5.294;2023-11-22T06:47:09;19.48;;;7.70;;
69985;SDS011;57328;52.054;5.294;2023-11-22T06:49:36;23.73;;;8.38;;
69985;SDS011;57328;52.054;5.294;2023-11-22T06:52:03;24.67;;;8.35;;
69985;SDS011;57328;52.054;5.294;2023-11-22T06:54:31;19.42;;;7.53;;
69985;SDS011;57328;52.054;5.294;2023-11-22T06:56:58;21.17;;;7.93;;
69985;SDS011;57328;52.054;5.294;2023-11-22T06:59:25;20.98;;;8.02;;
69985;SDS011;57328;52.054;5.294;2023-11-22T07:01:52;19.48;;;7.70;;
69985;SDS011;57328;52.054;5.294;2023-11-22T07:04:19;21.75;;;7.88;;
69985;SDS011;57328;52.054;5.294;2023-11-22T07:06:48;18.90;;;7.47;;
69985;SDS011;57328;52.054;5.294;2023-11-22T07:09:15;24.50;;;9.20;;
69985;SDS011;57328;52.054;5.294;2023-11-22T07:11:42;28.45;;;10.20;;
69985;SDS011;57328;52.054;5.294;2023-11-22T07:14:10;25.95;;;10.38;;
69985;SDS011;57328;52.054;5.294;2023-11-22T07:16:38;24.38;;;9.85;;
69985;SDS011;57328;52.054;5.294;2023-11-22T07:19:05;25.85;;;7.95;;
69985;SDS011;57328;52.054;5.294;2023-11-22T07:21:33;19.13;;;7.88;;
69985;SDS011;57328;52.054;5.294;2023-11-22T07:24:04;22.38;;;8.15;;
69985;SDS011;57328;52.054;5.294;2023-11-22T07:29:00;19.67;;;8.15;;
69985;SDS011;57328;52.054;5.294;2023-11-22T07:31:27;19.63;;;7.90;;
69985;SDS011;57328;52.054;5.294;2023-11-22T07:33:55;19.90;;;7.95;;
69985;SDS011;57328;52.054;5.294;2023-11-22T07:36:22;21.88;;;8.25;;
69985;SDS011;57328;52.054;5.294;2023-11-22T07:38:51;19.33;;;8.15;;
69985;SDS011;57328;52.054;5.294;2023-11-22T07:41:20;22.08;;;7.88;;
69985;SDS011;57328;52.054;5.294;2023-11-22T07:43:48;19.48;;;8.05;;
69985;SDS011;57328;52.054;5.294;2023-11-22T07:46:16;25.52;;;9.60;;
69985;SDS011;57328;52.054;5.294;2023-11-22T07:48:45;23.48;;;10.55;;
69985;SDS011;57328;52.054;5.294;2023-11-22T07:51:14;24.45;;;10.07;;
69985;SDS011;57328;52.054;5.294;2023-11-22T07:53:43;20.42;;;8.25;;
69985;SDS011;57328;52.054;5.294;2023-11-22T07:56:10;23.00;;;8.82;;
69985;SDS011;57328;52.054;5.294;2023-11-22T07:58:38;22.63;;;8.90;;
69985;SDS011;57328;52.054;5.294;2023-11-22T08:01:06;22.23;;;9.02;;
69985;SDS011;57328;52.054;5.294;2023-11-22T08:03:39;22.58;;;9.13;;
69985;SDS011;57328;52.054;5.294;2023-11-22T08:06:10;25.17;;;9.93;;
69985;SDS011;57328;52.054;5.294;2023-11-22T08:08:39;25.90;;;9.82;;
69985;SDS011;57328;52.054;5.294;2023-11-22T08:11:06;21.35;;;8.77;;
69985;SDS011;57328;52.054;5.294;2023-11-22T08:13:43;21.17;;;8.25;;
69985;SDS011;57328;52.054;5.294;2023-11-22T08:16:12;20.42;;;8.75;;
69985;SDS011;57328;52.054;5.294;2023-11-22T08:18:40;22.88;;;8.52;;
69985;SDS011;57328;52.054;5.294;2023-11-22T08:21:09;19.90;;;8.65;;
69985;SDS011;57328;52.054;5.294;2023-11-22T08:23:36;23.35;;;8.85;;
69985;SDS011;57328;52.054;5.294;2023-11-22T08:26:04;23.30;;;8.73;;
69985;SDS011;57328;52.054;5.294;2023-11-22T08:28:32;22.58;;;9.27;;
69985;SDS011;57328;52.054;5.294;2023-11-22T08:31:00;19.52;;;8.02;;
69985;SDS011;57328;52.054;5.294;2023-11-22T08:33:28;22.80;;;8.75;;
69985;SDS011;57328;52.054;5.294;2023-11-22T08:35:55;23.77;;;9.00;;
69985;SDS011;57328;52.054;5.294;2023-11-22T08:38:26;21.58;;;8.80;;
69985;SDS011;57328;52.054;5.294;2023-11-22T08:40:53;21.15;;;9.45;;
69985;SDS011;57328;52.054;5.294;2023-11-22T08:43:21;21.75;;;9.18;;
69985;SDS011;57328;52.054;5.294;2023-11-22T08:45:52;20.75;;;8.90;;
69985;SDS011;57328;52.054;5.294;2023-11-22T08:48:34;23.13;;;9.35;;
69985;SDS011;57328;52.054;5.294;2023-11-22T08:51:05;24.02;;;9.15;;
69985;SDS011;57328;52.054;5.294;2023-11-22T08:53:34;24.85;;;9.85;;
69985;SDS011;57328;52.054;5.294;2023-11-22T08:56:01;24.42;;;9.10;;
69985;SDS011;57328;52.054;5.294;2023-11-22T08:58:32;24.20;;;10.15;;
69985;SDS011;57328;52.054;5.294;2023-11-22T09:01:00;24.23;;;8.90;;
69985;SDS011;57328;52.054;5.294;2023-11-22T09:03:30;21.50;;;8.93;;
69985;SDS011;57328;52.054;5.294;2023-11-22T09:05:59;20.67;;;8.70;;
69985;SDS011;57328;52.054;5.294;2023-11-22T09:08:26;22.70;;;9.30;;
69985;SDS011;57328;52.054;5.294;2023-11-22T09:10:56;19.73;;;8.55;;
69985;SDS011;57328;52.054;5.294;2023-11-22T09:13:23;25.27;;;9.50;;
69985;SDS011;57328;52.054;5.294;2023-11-22T09:15:51;24.33;;;9.43;;
69985;SDS011;57328;52.054;5.294;2023-11-22T09:18:18;24.35;;;9.70;;
69985;SDS011;57328;52.054;5.294;2023-11-22T09:20:46;22.90;;;9.07;;
69985;SDS011;57328;52.054;5.294;2023-11-22T09:23:14;21.70;;;9.48;;
69985;SDS011;57328;52.054;5.294;2023-11-22T09:25:43;25.48;;;9.93;;
69985;SDS011;57328;52.054;5.294;2023-11-22T09:28:10;22.48;;;9.80;;
69985;SDS011;57328;52.054;5.294;2023-11-22T09:30:37;25.40;;;10.02;;
69985;SDS011;57328;52.054;5.294;2023-11-22T09:33:12;23.30;;;9.65;;
69985;SDS011;57328;52.054;5.294;2023-11-22T09:35:43;24.17;;;9.95;;
69985;SDS011;57328;52.054;5.294;2023-11-22T09:38:12;21.77;;;9.55;;
69985;SDS011;57328;52.054;5.294;2023-11-22T09:40:46;22.98;;;10.07;;
69985;SDS011;57328;52.054;5.294;2023-11-22T09:43:14;25.73;;;10.52;;
69985;SDS011;57328;52.054;5.294;2023-11-22T09:45:48;24.33;;;9.68;;
69985;SDS011;57328;52.054;5.294;2023-11-22T09:48:22;22.65;;;9.52;;
69985;SDS011;57328;52.054;5.294;2023-11-22T09:56:09;22.25;;;9.32;;
69985;SDS011;57328;52.054;5.294;2023-11-22T09:58:38;27.25;;;10.88;;
69985;SDS011;57328;52.054;5.294;2023-11-22T10:01:06;22.83;;;9.82;;
69985;SDS011;57328;52.054;5.294;2023-11-22T10:03:37;24.85;;;10.00;;
69985;SDS011;57328;52.054;5.294;2023-11-22T10:06:05;22.48;;;9.75;;
69985;SDS011;57328;52.054;5.294;2023-11-22T10:08:33;26.58;;;10.75;;
69985;SDS011;57328;52.054;5.294;2023-11-22T10:11:03;27.65;;;11.15;;
69985;SDS011;57328;52.054;5.294;2023-11-22T10:13:31;24.65;;;10.10;;
69985;SDS011;57328;52.054;5.294;2023-11-22T10:16:31;25.08;;;10.88;;
69985;SDS011;57328;52.054;5.294;2023-11-22T10:18:51;23.50;;;9.98;;
69985;SDS011;57328;52.054;5.294;2023-11-22T10:23:47;21.45;;;9.85;;
69985;SDS011;57328;52.054;5.294;2023-11-22T10:26:14;25.58;;;11.35;;
69985;SDS011;57328;52.054;5.294;2023-11-22T10:28:42;21.80;;;9.93;;
69985;SDS011;57328;52.054;5.294;2023-11-22T10:31:10;21.95;;;8.70;;
69985;SDS011;57328;52.054;5.294;2023-11-22T10:33:40;25.77;;;10.80;;
69985;SDS011;57328;52.054;5.294;2023-11-22T10:36:08;25.15;;;10.57;;
69985;SDS011;57328;52.054;5.294;2023-11-22T10:38:36;25.23;;;10.45;;
69985;SDS011;57328;52.054;5.294;2023-11-22T10:41:10;22.33;;;10.07;;
69985;SDS011;57328;52.054;5.294;2023-11-22T10:43:37;25.00;;;10.40;;
69985;SDS011;57328;52.054;5.294;2023-11-22T10:46:05;20.58;;;8.43;;
69985;SDS011;57328;52.054;5.294;2023-11-22T10:48:33;19.80;;;8.15;;
69985;SDS011;57328;52.054;5.294;2023-11-22T10:51:01;18.63;;;7.40;;
69985;SDS011;57328;52.054;5.294;2023-11-22T10:53:35;22.77;;;9.13;;
69985;SDS011;57328;52.054;5.294;2023-11-22T10:56:11;23.30;;;9.68;;
69985;SDS011;57328;52.054;5.294;2023-11-22T10:58:46;22.33;;;10.52;;
69985;SDS011;57328;52.054;5.294;2023-11-22T11:01:20;21.98;;;9.70;;
69985;SDS011;57328;52.054;5.294;2023-11-22T11:04:08;25.08;;;9.65;;
69985;SDS011;57328;52.054;5.294;2023-11-22T11:06:40;23.67;;;9.57;;
69985;SDS011;57328;52.054;5.294;2023-11-22T11:09:11;22.73;;;9.68;;
69985;SDS011;57328;52.054;5.294;2023-11-22T11:11:41;17.70;;;7.53;;
69985;SDS011;57328;52.054;5.294;2023-11-22T11:14:10;22.52;;;10.63;;
69985;SDS011;57328;52.054;5.294;2023-11-22T11:16:38;24.25;;;10.45;;
69985;SDS011;57328;52.054;5.294;2023-11-22T11:19:16;21.15;;;9.73;;
69985;SDS011;57328;52.054;5.294;2023-11-22T11:21:44;19.10;;;8.73;;
69985;SDS011;57328;52.054;5.294;2023-11-22T11:24:11;20.20;;;8.70;;
69985;SDS011;57328;52.054;5.294;2023-11-22T11:26:39;19.50;;;8.57;;
69985;SDS011;57328;52.054;5.294;2023-11-22T11:29:06;20.77;;;8.85;;
69985;SDS011;57328;52.054;5.294;2023-11-22T11:31:43;21.88;;;8.88;;
69985;SDS011;57328;52.054;5.294;2023-11-22T11:34:12;19.52;;;9.40;;
69985;SDS011;57328;52.054;5.294;2023-11-22T11:36:39;21.10;;;9.10;;
69985;SDS011;57328;52.054;5.294;2023-11-22T11:39:08;18.65;;;7.97;;
69985;SDS011;57328;52.054;5.294;2023-11-22T11:41:41;21.38;;;8.90;;
69985;SDS011;57328;52.054;5.294;2023-11-22T11:44:09;18.98;;;8.70;;
69985;SDS011;57328;52.054;5.294;2023-11-22T11:46:38;22.95;;;9.63;;
69985;SDS011;57328;52.054;5.294;2023-11-22T11:49:06;23.38;;;9.80;;
69985;SDS011;57328;52.054;5.294;2023-11-22T11:51:34;33.83;;;19.13;;
69985;SDS011;57328;52.054;5.294;2023-11-22T11:54:02;23.08;;;10.60;;
69985;SDS011;57328;52.054;5.294;2023-11-22T11:56:31;22.48;;;10.02;;
69985;SDS011;57328;52.054;5.294;2023-11-22T11:59:00;21.98;;;10.73;;
69985;SDS011;57328;52.054;5.294;2023-11-22T12:01:28;23.50;;;10.80;;
69985;SDS011;57328;52.054;5.294;2023-11-22T12:03:56;21.63;;;11.27;;
69985;SDS011;57328;52.054;5.294;2023-11-22T12:06:24;22.70;;;10.65;;
69985;SDS011;57328;52.054;5.294;2023-11-22T12:08:52;24.83;;;13.48;;
69985;SDS011;57328;52.054;5.294;2023-11-22T12:11:19;25.60;;;11.80;;
69985;SDS011;57328;52.054;5.294;2023-11-22T12:13:47;23.88;;;11.27;;
69985;SDS011;57328;52.054;5.294;2023-11-22T12:16:16;25.75;;;12.15;;
69985;SDS011;57328;52.054;5.294;2023-11-22T12:18:48;21.40;;;10.18;;
69985;SDS011;57328;52.054;5.294;2023-11-22T12:21:16;28.13;;;13.15;;
69985;SDS011;57328;52.054;5.294;2023-11-22T12:23:44;29.25;;;13.27;;
69985;SDS011;57328;52.054;5.294;2023-11-22T12:26:15;26.33;;;12.38;;
69985;SDS011;57328;52.054;5.294;2023-11-22T12:28:44;26.38;;;12.00;;
69985;SDS011;57328;52.054;5.294;2023-11-22T12:31:26;24.98;;;11.68;;
69985;SDS011;57328;52.054;5.294;2023-11-22T12:33:56;25.63;;;11.30;;
69985;SDS011;57328;52.054;5.294;2023-11-22T12:36:25;28.65;;;12.30;;
69985;SDS011;57328;52.054;5.294;2023-11-22T12:38:55;25.15;;;11.98;;
69985;SDS011;57328;52.054;5.294;2023-11-22T12:41:26;25.67;;;11.13;;
69985;SDS011;57328;52.054;5.294;2023-11-22T12:44:05;24.40;;;11.77;;
69985;SDS011;57328;52.054;5.294;2023-11-22T12:46:46;23.52;;;10.68;;
69985;SDS011;57328;52.054;5.294;2023-11-22T12:49:22;21.52;;;10.00;;
69985;SDS011;57328;52.054;5.294;2023-11-22T12:51:50;23.58;;;11.10;;
69985;SDS011;57328;52.054;5.294;2023-11-22T12:54:18;22.05;;;10.30;;
69985;SDS011;57328;52.054;5.294;2023-11-22T12:56:50;23.13;;;10.77;;
69985;SDS011;57328;52.054;5.294;2023-11-22T12:59:24;22.08;;;10.18;;
69985;SDS011;57328;52.054;5.294;2023-11-22T13:01:57;23.63;;;11.30;;
69985;SDS011;57328;52.054;5.294;2023-11-22T13:04:27;21.13;;;10.23;;
69985;SDS011;57328;52.054;5.294;2023-11-22T13:06:56;24.77;;;10.85;;
69985;SDS011;57328;52.054;5.294;2023-11-22T13:09:26;24.88;;;11.50;;
69985;SDS011;57328;52.054;5.294;2023-11-22T13:11:53;29.70;;;13.73;;
69985;SDS011;57328;52.054;5.294;2023-11-22T13:14:21;20.80;;;9.07;;
69985;SDS011;57328;52.054;5.294;2023-11-22T13:16:49;25.67;;;11.70;;
69985;SDS011;57328;52.054;5.294;2023-11-22T13:19:16;22.25;;;10.75;;
69985;SDS011;57328;52.054;5.294;2023-11-22T13:21:44;25.40;;;11.88;;
69985;SDS011;57328;52.054;5.294;2023-11-22T13:24:11;23.55;;;11.35;;
69985;SDS011;57328;52.054;5.294;2023-11-22T13:26:42;24.30;;;11.65;;
69985;SDS011;57328;52.054;5.294;2023-11-22T13:29:09;24.65;;;11.68;;
69985;SDS011;57328;52.054;5.294;2023-11-22T13:31:36;23.95;;;11.00;;
69985;SDS011;57328;52.054;5.294;2023-11-22T13:34:04;22.05;;;11.38;;
69985;SDS011;57328;52.054;5.294;2023-11-22T13:36:31;24.17;;;10.57;;
69985;SDS011;57328;52.054;5.294;2023-11-22T13:38:59;25.52;;;12.00;;
69985;SDS011;57328;52.054;5.294;2023-11-22T13:41:26;26.85;;;12.43;;
69985;SDS011;57328;52.054;5.294;2023-11-22T13:43:53;26.85;;;12.52;;
69985;SDS011;57328;52.054;5.294;2023-11-22T13:46:21;26.70;;;12.20;;
69985;SDS011;57328;52.054;5.294;2023-11-22T13:48:49;25.25;;;12.77;;
69985;SDS011;57328;52.054;5.294;2023-11-22T13:51:16;24.13;;;11.40;;
69985;SDS011;57328;52.054;5.294;2023-11-22T13:53:43;28.50;;;12.63;;
69985;SDS011;57328;52.054;5.294;2023-11-22T13:56:15;24.48;;;11.82;;
69985;SDS011;57328;52.054;5.294;2023-11-22T13:58:44;24.35;;;11.38;;
69985;SDS011;57328;52.054;5.294;2023-11-22T14:01:12;26.33;;;11.93;;
69985;SDS011;57328;52.054;5.294;2023-11-22T14:03:43;25.15;;;11.23;;
69985;SDS011;57328;52.054;5.294;2023-11-22T14:06:10;27.80;;;11.35;;
69985;SDS011;57328;52.054;5.294;2023-11-22T14:08:42;25.25;;;11.70;;
69985;SDS011;57328;52.054;5.294;2023-11-22T14:11:11;27.75;;;12.05;;
69985;SDS011;57328;52.054;5.294;2023-11-22T14:13:39;29.70;;;12.70;;
69985;SDS011;57328;52.054;5.294;2023-11-22T14:16:06;29.17;;;12.02;;
69985;SDS011;57328;52.054;5.294;2023-11-22T14:18:35;24.77;;;10.57;;
69985;SDS011;57328;52.054;5.294;2023-11-22T14:21:02;28.85;;;11.60;;
69985;SDS011;57328;52.054;5.294;2023-11-22T14:23:31;26.08;;;11.18;;
69985;SDS011;57328;52.054;5.294;2023-11-22T14:25:59;25.65;;;12.45;;
69985;SDS011;57328;52.054;5.294;2023-11-22T14:28:28;25.42;;;11.48;;
69985;SDS011;57328;52.054;5.294;2023-11-22T14:30:56;28.52;;;12.15;;
69985;SDS011;57328;52.054;5.294;2023-11-22T14:33:23;31.15;;;14.10;;
69985;SDS011;57328;52.054;5.294;2023-11-22T14:35:51;31.33;;;14.57;;
69985;SDS011;57328;52.054;5.294;2023-11-22T14:38:18;27.45;;;12.48;;
69985;SDS011;57328;52.054;5.294;2023-11-22T14:40:47;29.15;;;12.68;;
69985;SDS011;57328;52.054;5.294;2023-11-22T14:43:15;27.63;;;12.65;;
69985;SDS011;57328;52.054;5.294;2023-11-22T14:45:42;25.40;;;10.88;;
69985;SDS011;57328;52.054;5.294;2023-11-22T14:48:09;22.73;;;10.13;;
69985;SDS011;57328;52.054;5.294;2023-11-22T14:50:39;29.08;;;12.38;;